Honolulu, HI

8:53 PM HST on March 30, 2015 (GMT -1000)
Pacific Heights | | Change Station
CLOSE
Current Station
Personal Weather Station
Location: Honolulu, HI
Elevation: 528 ft
Nearby Weather Stations

Elev 528 ft 21.33 °N, 157.84 °W | Updated 11 seconds ago

Rain
Rain
70.2 °F
Feels Like 70.2 °F
N
2.0
Wind Variable Wind from East
Gusts 3.0 mph

Today
High -- | Low -- °F
--% Chance of Precip.
Yesterday
High -- | Low -- °F
Precip. -- in
6:26 AM 6:45 PM
Waxing Gibbous, 85% visible
Pressure 30.08 in
Visibility 10.0 miles
Clouds Few 3200 ft
Scattered Clouds 6500 ft
Dew Point 66 °F
Humidity 88%
Rainfall 0.22 in
Snow Depth Not available.
UV 0 out of 12
Pollen Not available.
Air Quality Not available.
Flu Activity Not available.
METAR PHNL 310553Z 06011KT 10SM FEW032 SCT065 22/18 A3008 RMK AO2 SLP185 60001 T02170183 10272 20217 53017

More Conditions Fewer Conditions

Pressure 30.08 in
Visibility 10.0 miles
Clouds Few 3200 ft
Scattered Clouds 6500 ft
Dew Point 66 °F
Humidity 88%
Rainfall 0.22 in
Snow Depth Not available.
UV 0 out of 12
Pollen Not available.
Air Quality Not available.
Flu Activity Not available.
METAR PHNL 310553Z 06011KT 10SM FEW032 SCT065 22/18 A3008 RMK AO2 SLP185 60001 T02170183 10272 20217 53017

More Conditions Fewer Conditions

10-Day Weather Forecast

Almanac

Astronomy

Mar. 30, 2015 Rise Set
Actual Time
Civil Twilight
Nautical Twilight
Astronomical Twilight
Moon
Length of Visible Light
Length of Day
Tomorrow will be .
, % of the Moon is Illuminated

Today's Extremes

State Highs State Lows

Community

WunderPhotos

Upload Photos

1,809,729 photos uploaded!

WunderBlogs® & News

Nearby

Air Quality

  Air Quality AQ Index Pollutant
Not available.

Snow Depth

Station Depth Elevation

Earthquake Activity

City Distance Mag. Time & Date
Minimum magnitude displayed is 2.5.

Coastal Water Temperatures

Place Temperature

Stations

Nearby Weather Stations

Station Location Temp. Windchill Dew Point Humidity Wind Precip. Elev Updated Type